createdAt,value
2019-03-25T00:04:50.206Z,37.10
2019-03-25T00:09:56.176Z,32.87
2019-03-25T00:15:00.894Z,32.07
2019-03-25T00:20:07.120Z,32.77
2019-03-25T00:25:11.938Z,40.37
2019-03-25T00:30:16.962Z,43.23
2019-03-25T00:35:22.040Z,58.77
2019-03-25T00:40:26.778Z,36.80
2019-03-25T00:45:31.528Z,50.30
2019-03-25T00:50:36.578Z,54.07
2019-03-25T00:55:41.392Z,59.93
2019-03-25T01:00:46.667Z,48.80
2019-03-25T01:05:51.794Z,46.93
2019-03-25T01:10:56.766Z,34.07
2019-03-25T01:16:01.815Z,31.03
2019-03-25T01:21:06.635Z,27.77
2019-03-25T01:26:11.608Z,24.07
2019-03-25T01:31:16.656Z,22.37
2019-03-25T01:36:21.687Z,38.80
2019-03-25T01:41:27.653Z,35.67
2019-03-25T01:46:32.419Z,29.50
2019-03-25T01:51:37.159Z,22.37
2019-03-25T01:56:41.903Z,33.70
2019-03-25T02:01:46.646Z,41.87
2019-03-25T02:06:53.102Z,28.47
2019-03-25T02:11:57.986Z,22.37
2019-03-25T02:17:02.792Z,21.17
2019-03-25T02:22:07.539Z,26.70
2019-03-25T02:27:12.274Z,23.63
2019-03-25T02:32:17.249Z,32.87
2019-03-25T02:37:22.079Z,39.23
2019-03-25T02:42:27.044Z,36.63
2019-03-25T02:47:31.782Z,45.17
2019-03-25T02:52:36.665Z,36.80
2019-03-25T02:57:41.393Z,40.83
2019-03-25T03:02:46.111Z,37.50
2019-03-25T03:07:50.960Z,25.43
2019-03-25T03:12:56.218Z,31.03
2019-03-25T03:18:01.293Z,23.50
2019-03-25T03:23:06.332Z,27.50
2019-03-25T03:28:11.074Z,32.17
2019-03-25T03:33:16.109Z,29.30
2019-03-25T03:38:20.886Z,24.37
2019-03-25T03:43:25.915Z,30.43
2019-03-25T03:48:30.660Z,21.73
2019-03-25T03:53:36.013Z,23.10
2019-03-25T03:58:42.599Z,20.00
2019-03-25T04:03:47.339Z,21.73
2019-03-25T04:08:52.064Z,34.47
2019-03-25T04:13:56.899Z,73.43
2019-03-25T04:19:01.873Z,54.13
2019-03-25T04:24:06.617Z,36.50
2019-03-25T04:29:11.367Z,50.27
2019-03-25T04:34:16.077Z,71.93
2019-03-25T04:39:20.844Z,50.70
2019-03-25T04:44:25.583Z,23.57
2019-03-25T04:49:30.325Z,20.97
2019-03-25T04:54:35.153Z,15.23
2019-03-25T04:59:40.117Z,25.33
2019-03-25T05:04:44.858Z,57.93
2019-03-25T05:09:49.600Z,39.93
2019-03-25T05:14:54.318Z,37.73
2019-03-25T05:19:59.396Z,83.50
2019-03-25T05:25:05.298Z,40.93
2019-03-25T05:30:11.817Z,36.13
2019-03-25T05:35:16.795Z,38.50
2019-03-25T05:40:21.744Z,40.77
2019-03-25T05:45:26.563Z,52.13
2019-03-25T05:50:31.389Z,60.93
2019-03-25T05:55:36.277Z,57.30
2019-03-25T06:00:41.322Z,25.82
2019-03-25T06:05:46.066Z,41.48
2019-03-25T06:10:51.152Z,121.05
2019-03-25T06:15:55.859Z,61.42
2019-03-25T06:21:00.915Z,105.07
2019-03-25T06:26:06.038Z,87.97
2019-03-25T06:31:11.617Z,48.60
2019-03-25T06:36:16.673Z,26.48
2019-03-25T06:41:21.490Z,28.62
2019-03-25T06:46:26.491Z,32.67
2019-03-25T06:51:31.515Z,34.08
2019-03-25T06:56:36.247Z,35.45
2019-03-25T07:01:40.989Z,38.05
2019-03-25T07:06:46.355Z,26.52
2019-03-25T07:24:44.308Z,22.32
2019-03-25T07:29:49.135Z,27.67
2019-03-25T07:34:54.100Z,25.75
2019-03-25T07:39:58.780Z,32.23
2019-03-25T07:45:05.735Z,32.70
2019-03-25T07:50:11.400Z,27.00
2019-03-25T07:55:16.452Z,31.65
2019-03-25T08:00:21.884Z,28.92
2019-03-25T08:05:26.625Z,27.65
2019-03-25T08:10:35.377Z,26.95
2019-03-25T08:15:40.073Z,27.80
2019-03-25T08:20:44.846Z,24.70
2019-03-25T08:25:49.814Z,17.77
2019-03-25T08:30:54.864Z,22.50
2019-03-25T08:35:59.912Z,15.25
2019-03-25T08:41:04.961Z,21.50
2019-03-25T08:46:10.011Z,24.30
2019-03-25T08:51:14.854Z,15.85
2019-03-25T08:56:19.804Z,15.85
2019-03-25T09:01:24.630Z,19.62
2019-03-25T09:06:30.010Z,15.10
2019-03-25T09:11:34.954Z,21.45
2019-03-25T09:16:39.697Z,13.13
2019-03-25T09:21:44.440Z,18.48
2019-03-25T09:26:49.258Z,15.03
2019-03-25T09:31:54.229Z,19.70
2019-03-25T09:36:59.255Z,13.80
2019-03-25T09:42:04.322Z,14.45
2019-03-25T09:47:09.150Z,20.37
2019-03-25T09:52:14.116Z,16.02
2019-03-25T09:57:19.617Z,18.12
2019-03-25T10:02:24.621Z,20.12
2019-03-25T10:07:29.875Z,18.45
2019-03-25T10:12:34.923Z,19.65
2019-03-25T10:17:39.742Z,15.40
2019-03-25T10:22:44.619Z,16.97
2019-03-25T10:27:50.072Z,23.32
2019-03-25T10:32:55.124Z,12.60
2019-03-25T10:37:59.865Z,11.48
2019-03-25T10:43:05.835Z,8.23
2019-03-25T10:48:10.882Z,11.93
2019-03-25T10:53:15.803Z,13.03
2019-03-25T10:58:20.954Z,11.53
2019-03-25T11:03:26.030Z,11.78
2019-03-25T11:08:31.084Z,9.58
2019-03-25T11:13:37.032Z,12.03
2019-03-25T11:18:41.766Z,14.95
2019-03-25T11:23:46.610Z,14.65
2019-03-25T11:28:51.459Z,18.17
2019-03-25T11:33:56.175Z,12.40
2019-03-25T11:39:01.077Z,12.03
2019-03-25T11:44:06.729Z,12.28
2019-03-25T11:49:11.760Z,11.83
2019-03-25T11:54:18.239Z,10.70
2019-03-25T11:59:23.415Z,16.30
2019-03-25T12:04:28.163Z,15.40
2019-03-25T12:09:32.897Z,10.95
2019-03-25T12:14:37.922Z,12.15
2019-03-25T12:19:42.995Z,10.28
2019-03-25T12:24:48.026Z,17.27
2019-03-25T12:29:52.790Z,12.47
2019-03-25T12:34:57.529Z,12.20
2019-03-25T12:40:02.358Z,12.43
2019-03-25T12:45:07.897Z,11.80
2019-03-25T12:50:13.599Z,10.38
2019-03-25T12:55:18.422Z,9.05
2019-03-25T13:00:43.355Z,13.18
2019-03-25T13:05:48.074Z,9.15
2019-03-25T13:10:53.123Z,9.50
2019-03-25T13:15:57.833Z,6.47
2019-03-25T13:21:02.631Z,11.20
2019-03-25T13:26:07.599Z,11.70
2019-03-25T13:31:12.388Z,6.00
2019-03-25T13:36:17.471Z,8.53
2019-03-25T13:41:22.522Z,7.65
2019-03-25T13:46:27.571Z,6.30
2019-03-25T13:51:32.413Z,11.78
2019-03-25T13:56:37.369Z,7.20
2019-03-25T14:01:42.423Z,10.03
2019-03-25T14:06:47.156Z,8.00
2019-03-25T14:11:51.872Z,8.00
2019-03-25T14:16:56.943Z,9.48
2019-03-25T14:22:01.659Z,7.30
2019-03-25T14:27:06.514Z,8.95
2019-03-25T14:32:11.480Z,7.03
2019-03-25T14:37:16.304Z,8.88
2019-03-25T14:42:21.304Z,6.62
2019-03-25T14:47:26.017Z,5.15
2019-03-25T14:52:31.038Z,7.78
2019-03-25T14:57:36.113Z,15.83
2019-03-25T15:02:41.156Z,9.63
2019-03-25T15:07:46.218Z,8.78
2019-03-25T15:12:50.949Z,5.97
2019-03-25T15:17:56.003Z,6.87
2019-03-25T15:23:01.023Z,11.10
2019-03-25T15:28:05.782Z,15.03
2019-03-25T15:33:10.530Z,24.02
2019-03-25T15:38:15.560Z,50.85
2019-03-25T15:43:20.320Z,28.25
2019-03-25T15:48:25.063Z,20.55
2019-03-25T15:53:29.804Z,55.48
2019-03-25T15:58:34.632Z,35.10
2019-03-25T16:03:39.595Z,18.80
2019-03-25T16:08:44.645Z,84.87
2019-03-25T16:13:49.820Z,53.38
2019-03-25T16:18:54.743Z,30.80
2019-03-25T16:23:59.772Z,36.60
2019-03-25T16:29:04.840Z,78.97
2019-03-25T16:34:09.890Z,54.33
2019-03-25T16:39:14.634Z,24.20
2019-03-25T16:44:19.680Z,21.12
2019-03-25T16:49:24.730Z,17.30
2019-03-25T16:54:29.474Z,37.85
2019-03-25T16:59:34.215Z,47.60
2019-03-25T17:04:39.270Z,19.05
2019-03-25T17:09:44.318Z,13.83
2019-03-25T17:14:49.364Z,17.17
2019-03-25T17:19:54.422Z,12.85
2019-03-25T17:24:59.167Z,23.20
2019-03-25T17:30:05.738Z,11.38
2019-03-25T17:35:10.786Z,10.88
2019-03-25T17:40:15.847Z,13.28
2019-03-25T17:45:20.891Z,20.37
2019-03-25T17:50:25.940Z,17.35
2019-03-25T17:55:30.675Z,13.75
2019-03-25T18:00:50.471Z,13.55
2019-03-25T18:05:55.522Z,26.23
2019-03-25T18:11:00.349Z,8.90
2019-03-25T18:16:05.431Z,27.90
2019-03-25T18:21:10.137Z,65.92
2019-03-25T18:26:14.981Z,59.73
2019-03-25T18:31:19.855Z,81.90
2019-03-25T18:36:24.894Z,36.03
2019-03-25T18:41:29.634Z,15.58
2019-03-25T18:46:34.690Z,14.18
2019-03-25T18:51:39.750Z,13.08
2019-03-25T18:56:44.790Z,17.25
2019-03-25T19:01:54.427Z,21.52
2019-03-25T19:06:56.110Z,19.52
2019-03-25T19:12:00.933Z,20.08
2019-03-25T19:17:05.902Z,15.78
2019-03-25T19:22:12.772Z,16.77
2019-03-25T19:27:17.611Z,17.20
2019-03-25T19:32:23.522Z,16.47
2019-03-25T19:37:28.352Z,18.80
2019-03-25T19:42:33.305Z,15.90
2019-03-25T19:47:38.353Z,17.67
2019-03-25T19:52:44.316Z,17.33
2019-03-25T19:57:49.390Z,22.80
2019-03-25T20:02:54.123Z,26.33
2019-03-25T20:07:59.156Z,31.50
2019-03-25T20:13:04.822Z,34.43
2019-03-25T20:18:09.869Z,33.40
2019-03-25T20:23:14.954Z,37.23
2019-03-25T20:28:19.814Z,41.53
2019-03-25T20:33:25.018Z,37.70
2019-03-25T20:38:30.054Z,40.00
2019-03-25T20:43:35.157Z,47.60
2019-03-25T20:48:40.066Z,43.97
2019-03-25T20:53:45.028Z,53.07
2019-03-25T20:58:49.946Z,71.23
2019-03-25T21:03:54.691Z,64.63
2019-03-25T21:08:59.760Z,70.07
2019-03-25T21:14:04.493Z,62.73
2019-03-25T21:19:09.584Z,61.90
2019-03-25T21:24:14.567Z,61.63
2019-03-25T21:29:19.738Z,60.33
2019-03-25T21:34:24.748Z,56.03
2019-03-25T21:39:30.656Z,58.70
2019-03-25T21:44:35.456Z,51.80
2019-03-25T21:49:40.447Z,50.00
2019-03-25T21:54:45.216Z,48.73
2019-03-25T21:59:50.302Z,48.80
2019-03-25T22:04:57.185Z,46.87
2019-03-25T22:10:01.887Z,44.70
2019-03-25T22:15:11.306Z,46.30
2019-03-25T22:20:16.554Z,51.53
2019-03-25T22:25:21.628Z,46.17
2019-03-25T22:30:26.678Z,54.60
2019-03-25T22:35:31.419Z,45.47
2019-03-25T22:40:36.469Z,44.67
2019-03-25T22:45:42.622Z,42.03
2019-03-25T22:50:47.488Z,38.57
2019-03-25T22:55:52.538Z,39.83
2019-03-25T23:00:57.863Z,44.03
2019-03-25T23:06:02.720Z,45.37
2019-03-25T23:11:07.687Z,42.00
2019-03-25T23:16:12.405Z,49.70
2019-03-25T23:21:17.146Z,40.83
2019-03-25T23:26:21.990Z,36.80
2019-03-25T23:31:26.834Z,35.40
2019-03-25T23:36:31.704Z,38.47
2019-03-25T23:41:36.753Z,41.40
2019-03-25T23:46:42.109Z,34.70
2019-03-25T23:51:47.157Z,37.20
2019-03-25T23:56:51.901Z,35.13
